sensor_id;sensor_type;location;lat;lon;timestamp;temperature;humidity
38380;DHT22;38377;47.418;18.882;2023-09-30T00:00:25;12.20;99.90
38380;DHT22;38377;47.418;18.882;2023-09-30T00:02:51;12.10;99.90
38380;DHT22;38377;47.418;18.882;2023-09-30T00:05:17;12.10;99.90
38380;DHT22;38377;47.418;18.882;2023-09-30T00:07:45;12.10;99.90
38380;DHT22;38377;47.418;18.882;2023-09-30T00:10:11;12.20;99.90
38380;DHT22;38377;47.418;18.882;2023-09-30T00:12:37;12.10;99.90
38380;DHT22;38377;47.418;18.882;2023-09-30T00:15:03;12.10;99.90
38380;DHT22;38377;47.418;18.882;2023-09-30T00:17:29;12.10;99.90
38380;DHT22;38377;47.418;18.882;2023-09-30T00:19:55;12.20;99.90
38380;DHT22;38377;47.418;18.882;2023-09-30T00:22:21;12.20;99.90
38380;DHT22;38377;47.418;18.882;2023-09-30T00:24:47;12.10;99.90
38380;DHT22;38377;47.418;18.882;2023-09-30T00:27:12;12.10;99.90
38380;DHT22;38377;47.418;18.882;2023-09-30T00:29:38;12.00;99.90
38380;DHT22;38377;47.418;18.882;2023-09-30T00:32:04;12.00;99.90
38380;DHT22;38377;47.418;18.882;2023-09-30T00:34:33;12.00;99.90
38380;DHT22;38377;47.418;18.882;2023-09-30T00:36:59;12.00;99.90
38380;DHT22;38377;47.418;18.882;2023-09-30T00:39:25;11.90;99.90
38380;DHT22;38377;47.418;18.882;2023-09-30T00:41:55;11.90;99.90
38380;DHT22;38377;47.418;18.882;2023-09-30T00:44:21;11.90;99.90
38380;DHT22;38377;47.418;18.882;2023-09-30T00:46:47;11.90;99.90
38380;DHT22;38377;47.418;18.882;2023-09-30T00:49:14;11.80;99.90
38380;DHT22;38377;47.418;18.882;2023-09-30T00:51:40;11.90;99.90
38380;DHT22;38377;47.418;18.882;2023-09-30T00:54:06;11.80;99.90
38380;DHT22;38377;47.418;18.882;2023-09-30T00:56:33;11.80;99.90
38380;DHT22;38377;47.418;18.882;2023-09-30T00:58:59;11.80;99.90
38380;DHT22;38377;47.418;18.882;2023-09-30T01:01:26;11.80;99.90
38380;DHT22;38377;47.418;18.882;2023-09-30T01:03:52;11.80;99.90
38380;DHT22;38377;47.418;18.882;2023-09-30T01:06:17;11.80;99.90
38380;DHT22;38377;47.418;18.882;2023-09-30T01:08:43;11.80;99.90
38380;DHT22;38377;47.418;18.882;2023-09-30T01:11:09;11.80;99.90
38380;DHT22;38377;47.418;18.882;2023-09-30T01:13:36;11.80;99.90
38380;DHT22;38377;47.418;18.882;2023-09-30T01:16:08;11.70;99.90
38380;DHT22;38377;47.418;18.882;2023-09-30T01:18:40;11.70;99.90
38380;DHT22;38377;47.418;18.882;2023-09-30T01:21:08;11.80;99.90
38380;DHT22;38377;47.418;18.882;2023-09-30T01:23:35;11.80;99.90
38380;DHT22;38377;47.418;18.882;2023-09-30T01:26:02;11.80;99.90
38380;DHT22;38377;47.418;18.882;2023-09-30T01:28:29;11.80;99.90
38380;DHT22;38377;47.418;18.882;2023-09-30T01:30:55;11.90;99.90
38380;DHT22;38377;47.418;18.882;2023-09-30T01:33:21;11.70;99.90
38380;DHT22;38377;47.418;18.882;2023-09-30T01:35:48;11.70;99.90
38380;DHT22;38377;47.418;18.882;2023-09-30T01:38:14;11.80;99.90
38380;DHT22;38377;47.418;18.882;2023-09-30T01:40:40;11.80;99.90
38380;DHT22;38377;47.418;18.882;2023-09-30T01:43:05;11.80;99.90
38380;DHT22;38377;47.418;18.882;2023-09-30T01:45:31;11.80;99.90
38380;DHT22;38377;47.418;18.882;2023-09-30T01:47:57;11.80;99.90
38380;DHT22;38377;47.418;18.882;2023-09-30T01:50:22;11.70;99.90
38380;DHT22;38377;47.418;18.882;2023-09-30T01:52:48;11.80;99.90
38380;DHT22;38377;47.418;18.882;2023-09-30T01:55:14;11.70;99.90
38380;DHT22;38377;47.418;18.882;2023-09-30T01:57:39;11.70;99.90
38380;DHT22;38377;47.418;18.882;2023-09-30T02:00:06;11.70;99.90
38380;DHT22;38377;47.418;18.882;2023-09-30T02:02:35;11.80;99.90
38380;DHT22;38377;47.418;18.882;2023-09-30T02:05:02;11.80;99.90
38380;DHT22;38377;47.418;18.882;2023-09-30T02:07:28;11.80;99.90
38380;DHT22;38377;47.418;18.882;2023-09-30T02:09:55;11.80;99.90
38380;DHT22;38377;47.418;18.882;2023-09-30T02:12:21;11.80;99.90
38380;DHT22;38377;47.418;18.882;2023-09-30T02:14:47;11.80;99.90
38380;DHT22;38377;47.418;18.882;2023-09-30T02:17:13;11.70;99.90
38380;DHT22;38377;47.418;18.882;2023-09-30T02:19:39;11.70;99.90
38380;DHT22;38377;47.418;18.882;2023-09-30T02:22:06;11.70;99.90
38380;DHT22;38377;47.418;18.882;2023-09-30T02:24:32;11.60;99.90
38380;DHT22;38377;47.418;18.882;2023-09-30T02:26:58;11.60;99.90
38380;DHT22;38377;47.418;18.882;2023-09-30T02:29:24;11.50;99.90
38380;DHT22;38377;47.418;18.882;2023-09-30T02:31:50;11.40;99.90
38380;DHT22;38377;47.418;18.882;2023-09-30T02:34:16;11.50;99.90
38380;DHT22;38377;47.418;18.882;2023-09-30T02:36:42;11.50;99.90
38380;DHT22;38377;47.418;18.882;2023-09-30T02:39:08;11.50;99.90
38380;DHT22;38377;47.418;18.882;2023-09-30T02:41:36;11.50;99.90
38380;DHT22;38377;47.418;18.882;2023-09-30T02:44:03;11.50;99.90
38380;DHT22;38377;47.418;18.882;2023-09-30T02:46:29;11.50;99.90
38380;DHT22;38377;47.418;18.882;2023-09-30T02:48:55;11.40;99.90
38380;DHT22;38377;47.418;18.882;2023-09-30T02:51:21;11.40;99.90
38380;DHT22;38377;47.418;18.882;2023-09-30T02:53:46;11.50;99.90
38380;DHT22;38377;47.418;18.882;2023-09-30T02:56:14;11.40;99.90
38380;DHT22;38377;47.418;18.882;2023-09-30T02:58:39;11.50;99.90
38380;DHT22;38377;47.418;18.882;2023-09-30T03:01:06;11.40;99.90
38380;DHT22;38377;47.418;18.882;2023-09-30T03:03:33;11.40;99.90
38380;DHT22;38377;47.418;18.882;2023-09-30T03:05:59;11.30;99.90
38380;DHT22;38377;47.418;18.882;2023-09-30T03:08:26;11.30;99.90
38380;DHT22;38377;47.418;18.882;2023-09-30T03:10:52;11.30;99.90
38380;DHT22;38377;47.418;18.882;2023-09-30T03:13:18;11.30;99.90
38380;DHT22;38377;47.418;18.882;2023-09-30T03:15:47;11.30;99.90
38380;DHT22;38377;47.418;18.882;2023-09-30T03:18:15;11.20;99.90
38380;DHT22;38377;47.418;18.882;2023-09-30T03:20:43;11.30;99.90
38380;DHT22;38377;47.418;18.882;2023-09-30T03:23:09;11.30;99.90
38380;DHT22;38377;47.418;18.882;2023-09-30T03:25:35;11.20;99.90
38380;DHT22;38377;47.418;18.882;2023-09-30T03:28:01;11.10;99.90
38380;DHT22;38377;47.418;18.882;2023-09-30T03:30:27;11.20;99.90
38380;DHT22;38377;47.418;18.882;2023-09-30T03:32:53;11.20;99.90
38380;DHT22;38377;47.418;18.882;2023-09-30T03:35:18;11.20;99.90
38380;DHT22;38377;47.418;18.882;2023-09-30T03:37:45;11.20;99.90
38380;DHT22;38377;47.418;18.882;2023-09-30T03:40:12;11.20;99.90
38380;DHT22;38377;47.418;18.882;2023-09-30T03:42:45;11.20;99.90
38380;DHT22;38377;47.418;18.882;2023-09-30T03:45:11;11.20;99.90
38380;DHT22;38377;47.418;18.882;2023-09-30T03:47:41;11.20;99.90
38380;DHT22;38377;47.418;18.882;2023-09-30T03:50:07;11.10;99.90
38380;DHT22;38377;47.418;18.882;2023-09-30T03:52:40;11.20;99.90
38380;DHT22;38377;47.418;18.882;2023-09-30T03:55:12;11.10;99.90
38380;DHT22;38377;47.418;18.882;2023-09-30T03:57:39;11.20;99.90
38380;DHT22;38377;47.418;18.882;2023-09-30T04:00:06;11.20;99.90
38380;DHT22;38377;47.418;18.882;2023-09-30T04:02:33;11.10;99.90
38380;DHT22;38377;47.418;18.882;2023-09-30T04:04:59;11.00;99.90
38380;DHT22;38377;47.418;18.882;2023-09-30T04:07:25;11.00;99.90
38380;DHT22;38377;47.418;18.882;2023-09-30T04:09:56;11.00;99.90
38380;DHT22;38377;47.418;18.882;2023-09-30T04:12:22;11.10;99.90
38380;DHT22;38377;47.418;18.882;2023-09-30T04:14:51;11.10;99.90
38380;DHT22;38377;47.418;18.882;2023-09-30T04:17:17;11.00;99.90
38380;DHT22;38377;47.418;18.882;2023-09-30T04:19:43;11.00;99.90
38380;DHT22;38377;47.418;18.882;2023-09-30T04:22:09;11.00;99.90
38380;DHT22;38377;47.418;18.882;2023-09-30T04:24:34;11.00;99.90
38380;DHT22;38377;47.418;18.882;2023-09-30T04:27:00;11.00;99.90
38380;DHT22;38377;47.418;18.882;2023-09-30T04:29:29;11.00;99.90
38380;DHT22;38377;47.418;18.882;2023-09-30T04:31:58;11.00;99.90
38380;DHT22;38377;47.418;18.882;2023-09-30T04:34:24;11.00;99.90
38380;DHT22;38377;47.418;18.882;2023-09-30T04:36:50;11.00;99.90
38380;DHT22;38377;47.418;18.882;2023-09-30T04:39:18;11.00;99.90
38380;DHT22;38377;47.418;18.882;2023-09-30T04:41:44;11.10;99.90
38380;DHT22;38377;47.418;18.882;2023-09-30T04:44:12;11.00;99.90
38380;DHT22;38377;47.418;18.882;2023-09-30T04:46:38;11.00;99.90
38380;DHT22;38377;47.418;18.882;2023-09-30T04:49:15;11.00;99.90
38380;DHT22;38377;47.418;18.882;2023-09-30T04:51:42;11.00;99.90
38380;DHT22;38377;47.418;18.882;2023-09-30T04:54:08;11.10;99.90
38380;DHT22;38377;47.418;18.882;2023-09-30T04:56:36;11.20;99.90
38380;DHT22;38377;47.418;18.882;2023-09-30T04:59:04;11.30;99.90
38380;DHT22;38377;47.418;18.882;2023-09-30T05:01:29;11.30;99.90
38380;DHT22;38377;47.418;18.882;2023-09-30T05:03:56;11.20;99.90
38380;DHT22;38377;47.418;18.882;2023-09-30T05:06:23;11.20;99.90
38380;DHT22;38377;47.418;18.882;2023-09-30T05:08:48;11.30;99.90
38380;DHT22;38377;47.418;18.882;2023-09-30T05:11:25;11.40;99.90
38380;DHT22;38377;47.418;18.882;2023-09-30T05:13:51;11.50;99.90
38380;DHT22;38377;47.418;18.882;2023-09-30T05:16:18;11.50;99.90
38380;DHT22;38377;47.418;18.882;2023-09-30T05:18:43;11.60;99.90
38380;DHT22;38377;47.418;18.882;2023-09-30T05:21:09;11.70;99.90
38380;DHT22;38377;47.418;18.882;2023-09-30T05:23:36;11.80;99.90
38380;DHT22;38377;47.418;18.882;2023-09-30T05:26:02;11.90;99.90
38380;DHT22;38377;47.418;18.882;2023-09-30T05:28:28;12.10;99.90
38380;DHT22;38377;47.418;18.882;2023-09-30T05:30:53;12.20;99.90
38380;DHT22;38377;47.418;18.882;2023-09-30T05:33:19;12.40;99.90
38380;DHT22;38377;47.418;18.882;2023-09-30T05:35:45;12.50;99.90
38380;DHT22;38377;47.418;18.882;2023-09-30T05:38:11;12.70;99.90
38380;DHT22;38377;47.418;18.882;2023-09-30T05:40:38;12.90;99.90
38380;DHT22;38377;47.418;18.882;2023-09-30T05:43:04;13.10;99.90
38380;DHT22;38377;47.418;18.882;2023-09-30T05:45:32;13.40;99.90
38380;DHT22;38377;47.418;18.882;2023-09-30T05:48:04;13.70;99.90
38380;DHT22;38377;47.418;18.882;2023-09-30T05:50:34;14.10;99.90
38380;DHT22;38377;47.418;18.882;2023-09-30T05:53:02;14.60;99.90
38380;DHT22;38377;47.418;18.882;2023-09-30T05:55:27;15.20;99.90
38380;DHT22;38377;47.418;18.882;2023-09-30T05:57:55;15.60;99.90
38380;DHT22;38377;47.418;18.882;2023-09-30T06:00:21;16.00;99.90
38380;DHT22;38377;47.418;18.882;2023-09-30T06:03:06;16.40;99.90
38380;DHT22;38377;47.418;18.882;2023-09-30T06:05:32;17.10;99.90
38380;DHT22;38377;47.418;18.882;2023-09-30T06:07:59;17.60;99.90
38380;DHT22;38377;47.418;18.882;2023-09-30T06:10:25;17.80;99.90
38380;DHT22;38377;47.418;18.882;2023-09-30T06:12:52;18.20;99.90
38380;DHT22;38377;47.418;18.882;2023-09-30T06:15:20;18.40;99.90
38380;DHT22;38377;47.418;18.882;2023-09-30T06:17:49;18.50;99.90
38380;DHT22;38377;47.418;18.882;2023-09-30T06:20:16;18.40;99.90
38380;DHT22;38377;47.418;18.882;2023-09-30T06:22:44;18.40;99.90
38380;DHT22;38377;47.418;18.882;2023-09-30T06:25:15;18.60;99.90
38380;DHT22;38377;47.418;18.882;2023-09-30T06:27:44;18.80;99.90
38380;DHT22;38377;47.418;18.882;2023-09-30T06:30:11;19.00;99.90
38380;DHT22;38377;47.418;18.882;2023-09-30T06:32:37;19.00;99.90
38380;DHT22;38377;47.418;18.882;2023-09-30T06:35:06;19.00;99.90
38380;DHT22;38377;47.418;18.882;2023-09-30T06:37:34;18.80;99.90
38380;DHT22;38377;47.418;18.882;2023-09-30T06:39:59;18.70;99.90
38380;DHT22;38377;47.418;18.882;2023-09-30T06:42:28;18.70;99.90
38380;DHT22;38377;47.418;18.882;2023-09-30T06:44:54;18.60;99.90
38380;DHT22;38377;47.418;18.882;2023-09-30T06:47:20;18.50;99.90
38380;DHT22;38377;47.418;18.882;2023-09-30T06:49:47;18.50;99.90
38380;DHT22;38377;47.418;18.882;2023-09-30T06:52:13;18.40;99.90
38380;DHT22;38377;47.418;18.882;2023-09-30T06:54:39;18.40;99.90
38380;DHT22;38377;47.418;18.882;2023-09-30T06:57:06;18.30;99.90
38380;DHT22;38377;47.418;18.882;2023-09-30T06:59:34;18.30;99.90
38380;DHT22;38377;47.418;18.882;2023-09-30T07:02:00;18.30;99.90
38380;DHT22;38377;47.418;18.882;2023-09-30T07:04:26;18.40;99.90
38380;DHT22;38377;47.418;18.882;2023-09-30T07:06:54;18.50;99.90
38380;DHT22;38377;47.418;18.882;2023-09-30T07:09:20;18.40;99.90
38380;DHT22;38377;47.418;18.882;2023-09-30T07:11:46;18.50;99.90
38380;DHT22;38377;47.418;18.882;2023-09-30T07:14:11;18.60;99.90
38380;DHT22;38377;47.418;18.882;2023-09-30T07:16:37;18.60;99.90
38380;DHT22;38377;47.418;18.882;2023-09-30T07:19:03;18.60;99.90
38380;DHT22;38377;47.418;18.882;2023-09-30T07:21:29;18.70;99.90
38380;DHT22;38377;47.418;18.882;2023-09-30T07:23:54;18.70;99.90
38380;DHT22;38377;47.418;18.882;2023-09-30T07:26:24;18.80;99.90
38380;DHT22;38377;47.418;18.882;2023-09-30T07:28:50;18.90;99.90
38380;DHT22;38377;47.418;18.882;2023-09-30T07:31:16;19.00;99.90
38380;DHT22;38377;47.418;18.882;2023-09-30T07:33:41;19.00;99.90
38380;DHT22;38377;47.418;18.882;2023-09-30T07:36:07;19.00;99.90
38380;DHT22;38377;47.418;18.882;2023-09-30T07:38:33;19.10;99.40
38380;DHT22;38377;47.418;18.882;2023-09-30T07:41:00;19.20;99.20
38380;DHT22;38377;47.418;18.882;2023-09-30T07:43:28;19.20;99.00
38380;DHT22;38377;47.418;18.882;2023-09-30T07:45:54;19.30;98.20
38380;DHT22;38377;47.418;18.882;2023-09-30T07:48:19;19.30;97.90
38380;DHT22;38377;47.418;18.882;2023-09-30T07:50:45;19.40;98.30
38380;DHT22;38377;47.418;18.882;2023-09-30T07:53:13;19.40;96.90
38380;DHT22;38377;47.418;18.882;2023-09-30T07:55:38;19.40;97.30
38380;DHT22;38377;47.418;18.882;2023-09-30T07:58:05;19.40;97.00
38380;DHT22;38377;47.418;18.882;2023-09-30T08:00:33;19.40;96.90
38380;DHT22;38377;47.418;18.882;2023-09-30T08:02:59;19.50;96.80
38380;DHT22;38377;47.418;18.882;2023-09-30T08:05:26;19.50;97.30
38380;DHT22;38377;47.418;18.882;2023-09-30T08:07:53;19.60;97.80
38380;DHT22;38377;47.418;18.882;2023-09-30T08:10:19;19.70;98.00
38380;DHT22;38377;47.418;18.882;2023-09-30T08:12:45;19.70;97.50
38380;DHT22;38377;47.418;18.882;2023-09-30T08:15:15;19.70;98.10
38380;DHT22;38377;47.418;18.882;2023-09-30T08:17:41;19.60;98.90
38380;DHT22;38377;47.418;18.882;2023-09-30T08:20:07;19.50;99.70
38380;DHT22;38377;47.418;18.882;2023-09-30T08:22:37;19.50;99.20
38380;DHT22;38377;47.418;18.882;2023-09-30T08:25:03;19.50;99.20
38380;DHT22;38377;47.418;18.882;2023-09-30T08:27:28;19.50;99.60
38380;DHT22;38377;47.418;18.882;2023-09-30T08:29:54;19.70;99.20
38380;DHT22;38377;47.418;18.882;2023-09-30T08:32:20;19.90;97.70
38380;DHT22;38377;47.418;18.882;2023-09-30T08:34:48;20.30;97.70
38380;DHT22;38377;47.418;18.882;2023-09-30T08:37:14;20.80;96.80
38380;DHT22;38377;47.418;18.882;2023-09-30T08:39:40;21.10;96.20
38380;DHT22;38377;47.418;18.882;2023-09-30T08:42:10;21.10;95.90
38380;DHT22;38377;47.418;18.882;2023-09-30T08:44:39;21.00;95.60
38380;DHT22;38377;47.418;18.882;2023-09-30T08:47:08;20.90;96.20
38380;DHT22;38377;47.418;18.882;2023-09-30T08:49:37;20.80;96.90
38380;DHT22;38377;47.418;18.882;2023-09-30T08:52:05;20.60;96.90
38380;DHT22;38377;47.418;18.882;2023-09-30T08:54:31;20.30;96.80
38380;DHT22;38377;47.418;18.882;2023-09-30T08:56:58;20.10;97.60
38380;DHT22;38377;47.418;18.882;2023-09-30T08:59:25;20.00;98.80
38380;DHT22;38377;47.418;18.882;2023-09-30T09:01:52;19.80;98.40
38380;DHT22;38377;47.418;18.882;2023-09-30T09:04:18;19.70;98.80
38380;DHT22;38377;47.418;18.882;2023-09-30T09:06:47;19.60;99.00
38380;DHT22;38377;47.418;18.882;2023-09-30T09:09:17;19.70;99.20
38380;DHT22;38377;47.418;18.882;2023-09-30T09:11:44;19.60;99.70
38380;DHT22;38377;47.418;18.882;2023-09-30T09:14:09;19.50;99.20
38380;DHT22;38377;47.418;18.882;2023-09-30T09:16:35;19.50;98.90
38380;DHT22;38377;47.418;18.882;2023-09-30T09:19:22;19.50;99.70
38380;DHT22;38377;47.418;18.882;2023-09-30T09:22:00;19.50;99.10
38380;DHT22;38377;47.418;18.882;2023-09-30T09:24:39;19.50;99.50
38380;DHT22;38377;47.418;18.882;2023-09-30T09:27:09;19.50;99.80
38380;DHT22;38377;47.418;18.882;2023-09-30T09:29:35;19.60;99.90
38380;DHT22;38377;47.418;18.882;2023-09-30T09:32:12;19.60;99.40
38380;DHT22;38377;47.418;18.882;2023-09-30T09:34:38;19.50;99.40
38380;DHT22;38377;47.418;18.882;2023-09-30T09:37:18;19.40;99.50
38380;DHT22;38377;47.418;18.882;2023-09-30T09:39:55;19.40;99.70
38380;DHT22;38377;47.418;18.882;2023-09-30T09:44:57;19.40;99.80
38380;DHT22;38377;47.418;18.882;2023-09-30T09:47:23;19.50;99.90
38380;DHT22;38377;47.418;18.882;2023-09-30T09:49:50;19.60;99.60
38380;DHT22;38377;47.418;18.882;2023-09-30T09:52:18;19.60;99.40
38380;DHT22;38377;47.418;18.882;2023-09-30T09:54:45;19.70;99.20
38380;DHT22;38377;47.418;18.882;2023-09-30T09:57:14;19.80;99.80
38380;DHT22;38377;47.418;18.882;2023-09-30T09:59:43;19.90;99.90
38380;DHT22;38377;47.418;18.882;2023-09-30T10:02:12;20.00;99.90
38380;DHT22;38377;47.418;18.882;2023-09-30T10:04:49;20.20;98.00
38380;DHT22;38377;47.418;18.882;2023-09-30T10:07:20;20.30;98.20
38380;DHT22;38377;47.418;18.882;2023-09-30T10:09:49;20.40;98.50
38380;DHT22;38377;47.418;18.882;2023-09-30T10:12:17;20.50;97.80
38380;DHT22;38377;47.418;18.882;2023-09-30T10:14:43;20.60;97.60
38380;DHT22;38377;47.418;18.882;2023-09-30T10:17:09;20.60;97.40
38380;DHT22;38377;47.418;18.882;2023-09-30T10:19:35;20.70;97.80
38380;DHT22;38377;47.418;18.882;2023-09-30T10:24:43;20.70;97.50
38380;DHT22;38377;47.418;18.882;2023-09-30T10:40:47;20.70;98.50
38380;DHT22;38377;47.418;18.882;2023-09-30T10:43:41;20.60;98.50
38380;DHT22;38377;47.418;18.882;2023-09-30T10:48:53;20.50;99.10
38380;DHT22;38377;47.418;18.882;2023-09-30T10:51:20;20.40;99.20
38380;DHT22;38377;47.418;18.882;2023-09-30T10:53:53;20.40;99.10
38380;DHT22;38377;47.418;18.882;2023-09-30T10:56:22;20.30;99.70
38380;DHT22;38377;47.418;18.882;2023-09-30T10:58:50;20.30;99.90
38380;DHT22;38377;47.418;18.882;2023-09-30T11:01:23;20.30;99.60
38380;DHT22;38377;47.418;18.882;2023-09-30T11:03:50;20.30;99.90
38380;DHT22;38377;47.418;18.882;2023-09-30T11:06:21;20.20;99.80
38380;DHT22;38377;47.418;18.882;2023-09-30T11:08:58;20.20;99.80
38380;DHT22;38377;47.418;18.882;2023-09-30T11:11:38;20.10;99.90
38380;DHT22;38377;47.418;18.882;2023-09-30T11:16:53;19.90;99.90
38380;DHT22;38377;47.418;18.882;2023-09-30T11:19:20;19.80;99.90
38380;DHT22;38377;47.418;18.882;2023-09-30T11:21:50;19.70;99.90
38380;DHT22;38377;47.418;18.882;2023-09-30T11:24:16;19.60;99.90
38380;DHT22;38377;47.418;18.882;2023-09-30T11:26:43;19.60;99.90
38380;DHT22;38377;47.418;18.882;2023-09-30T11:29:11;19.50;99.90
38380;DHT22;38377;47.418;18.882;2023-09-30T11:31:39;19.40;99.90
38380;DHT22;38377;47.418;18.882;2023-09-30T11:34:05;19.30;99.90
38380;DHT22;38377;47.418;18.882;2023-09-30T11:36:34;19.20;99.90
38380;DHT22;38377;47.418;18.882;2023-09-30T11:39:00;19.10;99.90
38380;DHT22;38377;47.418;18.882;2023-09-30T11:41:36;19.10;99.90
38380;DHT22;38377;47.418;18.882;2023-09-30T11:44:11;19.10;99.90
38380;DHT22;38377;47.418;18.882;2023-09-30T11:46:53;19.10;99.90
38380;DHT22;38377;47.418;18.882;2023-09-30T11:49:27;19.00;99.90
38380;DHT22;38377;47.418;18.882;2023-09-30T11:51:54;19.00;99.90
38380;DHT22;38377;47.418;18.882;2023-09-30T11:54:20;19.00;99.90
38380;DHT22;38377;47.418;18.882;2023-09-30T11:56:48;18.90;99.90
38380;DHT22;38377;47.418;18.882;2023-09-30T11:59:13;18.90;99.90
38380;DHT22;38377;47.418;18.882;2023-09-30T12:01:39;18.90;99.90
38380;DHT22;38377;47.418;18.882;2023-09-30T12:04:06;18.80;99.90
38380;DHT22;38377;47.418;18.882;2023-09-30T12:06:32;18.80;99.90
38380;DHT22;38377;47.418;18.882;2023-09-30T12:08:59;18.80;99.90
38380;DHT22;38377;47.418;18.882;2023-09-30T12:11:25;18.90;99.90
38380;DHT22;38377;47.418;18.882;2023-09-30T12:13:51;18.90;99.90
38380;DHT22;38377;47.418;18.882;2023-09-30T12:16:17;18.90;99.90
38380;DHT22;38377;47.418;18.882;2023-09-30T12:18:43;18.90;99.90
38380;DHT22;38377;47.418;18.882;2023-09-30T12:21:12;18.90;99.90
38380;DHT22;38377;47.418;18.882;2023-09-30T12:23:39;18.90;99.90
38380;DHT22;38377;47.418;18.882;2023-09-30T12:26:05;18.90;99.90
38380;DHT22;38377;47.418;18.882;2023-09-30T12:28:35;18.90;99.90
38380;DHT22;38377;47.418;18.882;2023-09-30T12:31:01;19.00;99.90
38380;DHT22;38377;47.418;18.882;2023-09-30T12:33:30;19.00;99.90
38380;DHT22;38377;47.418;18.882;2023-09-30T12:35:57;19.00;99.90
38380;DHT22;38377;47.418;18.882;2023-09-30T12:38:25;19.00;99.90
38380;DHT22;38377;47.418;18.882;2023-09-30T12:40:53;19.10;99.90
38380;DHT22;38377;47.418;18.882;2023-09-30T12:43:19;19.10;99.90
38380;DHT22;38377;47.418;18.882;2023-09-30T12:45:49;19.30;99.90
38380;DHT22;38377;47.418;18.882;2023-09-30T12:48:15;19.40;99.90
38380;DHT22;38377;47.418;18.882;2023-09-30T12:50:41;19.60;99.90
38380;DHT22;38377;47.418;18.882;2023-09-30T12:53:07;19.60;99.90
38380;DHT22;38377;47.418;18.882;2023-09-30T12:55:33;19.70;99.90
38380;DHT22;38377;47.418;18.882;2023-09-30T12:57:59;19.70;99.90
38380;DHT22;38377;47.418;18.882;2023-09-30T13:00:25;19.60;99.90
38380;DHT22;38377;47.418;18.882;2023-09-30T13:02:52;19.60;99.90
38380;DHT22;38377;47.418;18.882;2023-09-30T13:05:18;19.60;99.90
38380;DHT22;38377;47.418;18.882;2023-09-30T13:07:45;19.60;99.90
38380;DHT22;38377;47.418;18.882;2023-09-30T13:10:11;19.70;99.90
38380;DHT22;38377;47.418;18.882;2023-09-30T13:12:38;19.60;99.90
38380;DHT22;38377;47.418;18.882;2023-09-30T13:15:05;19.70;99.90
38380;DHT22;38377;47.418;18.882;2023-09-30T13:17:31;19.70;99.90
38380;DHT22;38377;47.418;18.882;2023-09-30T13:19:57;19.80;99.90
38380;DHT22;38377;47.418;18.882;2023-09-30T13:22:23;19.80;99.90
38380;DHT22;38377;47.418;18.882;2023-09-30T13:24:49;19.90;99.90
38380;DHT22;38377;47.418;18.882;2023-09-30T13:27:15;20.00;99.90
38380;DHT22;38377;47.418;18.882;2023-09-30T13:29:41;20.10;99.90
38380;DHT22;38377;47.418;18.882;2023-09-30T13:32:09;20.10;99.90
38380;DHT22;38377;47.418;18.882;2023-09-30T13:34:35;20.20;99.90
38380;DHT22;38377;47.418;18.882;2023-09-30T13:37:01;20.20;99.90
38380;DHT22;38377;47.418;18.882;2023-09-30T13:39:27;20.20;99.90
38380;DHT22;38377;47.418;18.882;2023-09-30T13:41:53;20.30;99.90
38380;DHT22;38377;47.418;18.882;2023-09-30T13:44:18;20.40;99.90
38380;DHT22;38377;47.418;18.882;2023-09-30T13:46:44;20.40;99.90
38380;DHT22;38377;47.418;18.882;2023-09-30T13:49:11;20.40;99.90
38380;DHT22;38377;47.418;18.882;2023-09-30T13:51:37;20.60;99.90
38380;DHT22;38377;47.418;18.882;2023-09-30T13:54:04;20.70;99.90
38380;DHT22;38377;47.418;18.882;2023-09-30T13:56:32;20.70;99.90
38380;DHT22;38377;47.418;18.882;2023-09-30T13:58:58;20.60;99.90
38380;DHT22;38377;47.418;18.882;2023-09-30T14:01:25;20.50;99.90
38380;DHT22;38377;47.418;18.882;2023-09-30T14:03:50;20.50;99.90
38380;DHT22;38377;47.418;18.882;2023-09-30T14:06:21;20.50;99.90
38380;DHT22;38377;47.418;18.882;2023-09-30T14:08:47;20.50;99.90
38380;DHT22;38377;47.418;18.882;2023-09-30T14:11:13;20.50;99.90
38380;DHT22;38377;47.418;18.882;2023-09-30T14:13:38;20.40;99.90
38380;DHT22;38377;47.418;18.882;2023-09-30T14:16:08;20.40;99.90
38380;DHT22;38377;47.418;18.882;2023-09-30T14:18:34;20.40;99.90
38380;DHT22;38377;47.418;18.882;2023-09-30T14:21:02;20.40;99.90
38380;DHT22;38377;47.418;18.882;2023-09-30T14:23:27;20.60;99.90
38380;DHT22;38377;47.418;18.882;2023-09-30T14:25:54;20.70;99.90
38380;DHT22;38377;47.418;18.882;2023-09-30T14:28:23;20.80;99.90
38380;DHT22;38377;47.418;18.882;2023-09-30T14:30:49;21.00;99.90
38380;DHT22;38377;47.418;18.882;2023-09-30T14:33:17;21.20;99.90
38380;DHT22;38377;47.418;18.882;2023-09-30T14:35:45;21.30;99.90
38380;DHT22;38377;47.418;18.882;2023-09-30T14:38:11;21.30;99.90
38380;DHT22;38377;47.418;18.882;2023-09-30T14:40:40;21.30;99.90
38380;DHT22;38377;47.418;18.882;2023-09-30T14:43:06;21.30;99.90
38380;DHT22;38377;47.418;18.882;2023-09-30T14:45:36;21.20;99.90
38380;DHT22;38377;47.418;18.882;2023-09-30T14:48:02;21.10;99.90
38380;DHT22;38377;47.418;18.882;2023-09-30T14:50:28;21.10;99.90
38380;DHT22;38377;47.418;18.882;2023-09-30T14:52:53;21.00;99.90
38380;DHT22;38377;47.418;18.882;2023-09-30T14:55:19;20.90;99.90
38380;DHT22;38377;47.418;18.882;2023-09-30T14:57:45;20.90;99.90
38380;DHT22;38377;47.418;18.882;2023-09-30T15:00:11;20.90;99.90
38380;DHT22;38377;47.418;18.882;2023-09-30T15:02:37;20.90;99.90
38380;DHT22;38377;47.418;18.882;2023-09-30T15:05:04;20.80;99.90
38380;DHT22;38377;47.418;18.882;2023-09-30T15:07:30;20.80;99.90
38380;DHT22;38377;47.418;18.882;2023-09-30T15:09:56;20.70;99.90
38380;DHT22;38377;47.418;18.882;2023-09-30T15:12:21;20.60;99.90
38380;DHT22;38377;47.418;18.882;2023-09-30T15:14:47;20.60;99.90
38380;DHT22;38377;47.418;18.882;2023-09-30T15:17:13;20.50;99.90
38380;DHT22;38377;47.418;18.882;2023-09-30T15:19:38;20.50;99.90
38380;DHT22;38377;47.418;18.882;2023-09-30T15:22:04;20.50;99.90
38380;DHT22;38377;47.418;18.882;2023-09-30T15:24:30;20.40;99.90
38380;DHT22;38377;47.418;18.882;2023-09-30T15:26:55;20.30;99.90
38380;DHT22;38377;47.418;18.882;2023-09-30T15:29:21;20.20;99.90
38380;DHT22;38377;47.418;18.882;2023-09-30T15:31:47;20.20;99.90
38380;DHT22;38377;47.418;18.882;2023-09-30T15:34:12;20.20;99.90
38380;DHT22;38377;47.418;18.882;2023-09-30T15:36:39;20.10;99.90
38380;DHT22;38377;47.418;18.882;2023-09-30T15:39:04;20.10;99.90